createdAt,value
2022-08-18T00:02:07.650Z,100.00
2022-08-18T00:04:48.546Z,100.00
2022-08-18T00:07:26.154Z,100.00
2022-08-18T00:09:59.766Z,100.00
2022-08-18T00:12:39.714Z,100.00
2022-08-18T00:15:17.603Z,100.00
2022-08-18T00:17:52.542Z,100.00
2022-08-18T00:20:27.045Z,100.00
2022-08-18T00:23:00.703Z,100.00
2022-08-18T00:25:33.985Z,100.00
2022-08-18T00:28:07.167Z,100.00
2022-08-18T00:30:41.218Z,100.00
2022-08-18T00:33:15.749Z,100.00
2022-08-18T00:35:48.856Z,100.00
2022-08-18T00:38:23.358Z,100.00
2022-08-18T00:40:58.717Z,100.00
2022-08-18T00:43:45.799Z,100.00
2022-08-18T00:46:23.463Z,100.00
2022-08-18T00:48:58.402Z,100.00
2022-08-18T00:51:39.406Z,100.00
2022-08-18T00:54:17.423Z,100.00
2022-08-18T00:56:54.658Z,100.00
2022-08-18T00:59:34.255Z,100.00
2022-08-18T01:02:10.808Z,100.00
2022-08-18T01:04:52.349Z,100.00
2022-08-18T01:07:30.203Z,100.00
2022-08-18T01:10:05.404Z,100.00
2022-08-18T01:12:45.517Z,100.00
2022-08-18T01:15:27.611Z,100.00
2022-08-18T01:18:20.607Z,100.00
2022-08-18T01:21:26.536Z,100.00
2022-08-18T01:24:03.810Z,100.00
2022-08-18T01:26:38.133Z,100.00
2022-08-18T01:29:20.946Z,100.00
2022-08-18T01:31:56.285Z,100.00
2022-08-18T01:34:29.844Z,100.00
2022-08-18T01:37:04.969Z,100.00
2022-08-18T01:41:11.214Z,100.00
2022-08-18T01:42:32.686Z,100.00
2022-08-18T01:45:08.952Z,100.00
2022-08-18T01:47:58.075Z,100.00
2022-08-18T01:50:31.580Z,100.00
2022-08-18T01:53:05.850Z,100.00
2022-08-18T01:55:45.288Z,100.00
2022-08-18T01:58:18.375Z,100.00
2022-08-18T02:00:51.459Z,100.00
2022-08-18T02:03:27.075Z,100.00
2022-08-18T02:06:03.367Z,100.00
2022-08-18T02:08:37.042Z,100.00
2022-08-18T02:11:11.828Z,100.00
2022-08-18T02:13:45.156Z,100.00
2022-08-18T02:16:18.486Z,100.00
2022-08-18T02:18:51.707Z,100.00
2022-08-18T02:21:24.773Z,100.00
2022-08-18T02:23:57.946Z,100.00
2022-08-18T02:26:32.464Z,100.00
2022-08-18T02:29:05.612Z,100.00
2022-08-18T02:31:38.652Z,100.00
2022-08-18T02:34:11.774Z,100.00
2022-08-18T02:36:44.959Z,100.00
2022-08-18T02:39:18.486Z,100.00
2022-08-18T02:41:53.512Z,100.00
2022-08-18T02:44:26.585Z,100.00
2022-08-18T02:47:00.228Z,100.00
2022-08-18T02:49:33.489Z,100.00
2022-08-18T02:52:07.030Z,100.00
2022-08-18T02:54:40.230Z,100.00
2022-08-18T02:57:14.836Z,100.00
2022-08-18T02:59:47.938Z,100.00
2022-08-18T03:02:22.414Z,100.00
2022-08-18T03:04:55.613Z,100.00
2022-08-18T03:07:28.734Z,100.00
2022-08-18T03:10:31.971Z,100.00
2022-08-18T03:12:56.297Z,100.00
2022-08-18T03:15:29.719Z,100.00
2022-08-18T03:18:02.752Z,100.00
2022-08-18T03:20:37.276Z,100.00
2022-08-18T03:23:10.765Z,100.00
2022-08-18T03:25:47.007Z,100.00
2022-08-18T03:28:22.938Z,100.00
2022-08-18T03:30:56.766Z,100.00
2022-08-18T03:33:29.852Z,100.00
2022-08-18T03:36:06.726Z,100.00
2022-08-18T03:38:40.729Z,100.00
2022-08-18T03:41:16.619Z,100.00
2022-08-18T03:44:11.718Z,100.00
2022-08-18T03:46:46.110Z,100.00
2022-08-18T03:49:20.740Z,100.00
2022-08-18T03:51:53.830Z,100.00
2022-08-18T03:54:26.902Z,100.00
2022-08-18T03:57:00.448Z,100.00
2022-08-18T03:59:34.950Z,100.00
2022-08-18T04:02:08.467Z,100.00
2022-08-18T04:04:43.143Z,100.00
2022-08-18T04:07:17.591Z,100.00
2022-08-18T04:09:50.686Z,100.00
2022-08-18T04:12:23.867Z,100.00
2022-08-18T04:14:58.288Z,100.00
2022-08-18T04:17:31.688Z,100.00
2022-08-18T04:20:06.234Z,100.00
2022-08-18T04:22:40.103Z,100.00
2022-08-18T04:25:13.751Z,100.00
2022-08-18T04:27:46.832Z,100.00
2022-08-18T04:30:22.619Z,100.00
2022-08-18T04:32:55.928Z,100.00
2022-08-18T04:35:29.938Z,100.00
2022-08-18T04:38:03.055Z,100.00
2022-08-18T04:40:36.094Z,100.00
2022-08-18T04:43:11.796Z,100.00
2022-08-18T04:45:47.143Z,100.00
2022-08-18T04:48:20.217Z,100.00
2022-08-18T04:50:55.837Z,100.00
2022-08-18T04:53:46.035Z,100.00
2022-08-18T04:56:26.467Z,100.00
2022-08-18T04:59:02.486Z,100.00
2022-08-18T05:01:40.450Z,100.00
2022-08-18T05:04:14.544Z,100.00
2022-08-18T05:06:48.124Z,100.00
2022-08-18T05:09:23.060Z,100.00
2022-08-18T05:11:56.503Z,100.00
2022-08-18T05:14:29.680Z,100.00
2022-08-18T05:17:05.312Z,100.00
2022-08-18T05:19:38.756Z,100.00
2022-08-18T05:22:19.576Z,100.00
2022-08-18T05:25:02.041Z,100.00
2022-08-18T05:27:36.913Z,100.00
2022-08-18T05:30:12.066Z,100.00
2022-08-18T05:32:50.128Z,100.00
2022-08-18T05:35:37.931Z,100.00
2022-08-18T05:38:38.731Z,100.00
2022-08-18T05:41:16.294Z,100.00
2022-08-18T05:43:52.194Z,100.00
2022-08-18T05:46:39.472Z,100.00
2022-08-18T05:49:15.657Z,100.00
2022-08-18T05:51:51.480Z,100.00
2022-08-18T05:54:43.014Z,100.00
2022-08-18T05:57:21.366Z,100.00
2022-08-18T05:59:56.077Z,100.00
2022-08-18T06:02:35.346Z,100.00
2022-08-18T06:05:14.597Z,100.00
2022-08-18T06:07:54.691Z,97.44
2022-08-18T06:10:28.547Z,100.00
2022-08-18T06:13:03.577Z,98.63
2022-08-18T06:15:53.131Z,100.00
2022-08-18T06:18:41.875Z,100.00
2022-08-18T06:21:42.035Z,97.36
2022-08-18T06:24:25.483Z,100.00
2022-08-18T06:27:09.975Z,98.05
2022-08-18T06:30:04.527Z,96.05
2022-08-18T06:32:57.759Z,94.91
2022-08-18T06:35:38.823Z,94.45
2022-08-18T06:38:45.476Z,88.93
2022-08-18T06:41:40.700Z,90.30
2022-08-18T06:44:25.146Z,89.80
2022-08-18T06:47:06.451Z,88.16
2022-08-18T06:49:46.639Z,88.74
2022-08-18T06:52:30.102Z,88.30
2022-08-18T06:55:09.341Z,90.41
2022-08-18T06:57:57.691Z,92.55
2022-08-18T07:00:34.493Z,92.80
2022-08-18T07:03:14.581Z,90.97
2022-08-18T07:06:02.872Z,95.09
2022-08-18T07:08:40.161Z,94.10
2022-08-18T07:11:21.222Z,93.00
2022-08-18T07:14:15.119Z,94.86
2022-08-18T07:17:05.115Z,96.82
2022-08-18T07:19:38.876Z,88.83
2022-08-18T07:22:17.080Z,88.09
2022-08-18T07:24:54.291Z,90.15
2022-08-18T07:27:48.965Z,86.66
2022-08-18T07:30:36.170Z,85.50
2022-08-18T07:33:21.215Z,86.04
2022-08-18T07:36:00.197Z,87.26
2022-08-18T07:38:43.274Z,86.48
2022-08-18T07:41:21.552Z,87.24
2022-08-18T07:44:09.949Z,87.01
2022-08-18T07:46:59.625Z,88.05
2022-08-18T07:49:37.166Z,90.19
2022-08-18T07:52:36.182Z,84.93
2022-08-18T07:55:27.855Z,87.02
2022-08-18T07:58:16.792Z,90.11
2022-08-18T08:00:59.995Z,89.18
2022-08-18T08:03:45.906Z,86.35
2022-08-18T08:06:25.954Z,86.29
2022-08-18T08:09:08.137Z,86.76
2022-08-18T08:11:53.344Z,87.39
2022-08-18T08:14:42.605Z,86.95
2022-08-18T08:17:44.300Z,87.20
2022-08-18T08:20:28.865Z,88.92
2022-08-18T08:23:22.754Z,90.06
2022-08-18T08:26:18.465Z,90.91
2022-08-18T08:29:08.971Z,91.65
2022-08-18T08:31:51.931Z,91.41
2022-08-18T08:34:34.725Z,90.93
2022-08-18T08:37:16.415Z,91.31
2022-08-18T08:39:59.957Z,92.24
2022-08-18T08:42:41.482Z,90.03
2022-08-18T08:45:22.494Z,90.92
2022-08-18T08:48:09.385Z,92.13
2022-08-18T08:50:50.453Z,90.79
2022-08-18T08:53:28.492Z,91.67
2022-08-18T08:56:09.828Z,92.44
2022-08-18T08:58:49.581Z,91.01
2022-08-18T09:01:31.329Z,93.03
2022-08-18T09:04:19.486Z,91.83
2022-08-18T09:07:14.496Z,88.95
2022-08-18T09:10:25.051Z,84.38
2022-08-18T09:13:28.449Z,82.58
2022-08-18T09:16:19.499Z,81.57
2022-08-18T09:19:15.920Z,82.18
2022-08-18T09:21:58.607Z,81.03
2022-08-18T09:24:40.387Z,81.06
2022-08-18T09:27:24.772Z,80.32
2022-08-18T09:30:01.852Z,78.97
2022-08-18T09:32:57.972Z,78.37
2022-08-18T09:36:08.900Z,77.76
2022-08-18T09:39:10.631Z,73.68
2022-08-18T09:41:51.477Z,72.67
2022-08-18T09:45:02.018Z,69.49
2022-08-18T09:48:02.511Z,70.82
2022-08-18T09:50:55.389Z,70.81
2022-08-18T09:54:08.606Z,71.92
2022-08-18T09:57:20.817Z,72.98
2022-08-18T10:00:31.207Z,73.13
2022-08-18T10:03:31.095Z,74.28
2022-08-18T10:09:36.773Z,73.16
2022-08-18T10:12:28.366Z,72.94
2022-08-18T10:18:53.355Z,71.92
2022-08-18T10:21:31.347Z,71.66
2022-08-18T10:24:36.516Z,68.96
2022-08-18T10:27:35.331Z,69.95
2022-08-18T10:31:05.949Z,71.67
2022-08-18T10:34:08.515Z,66.63
2022-08-18T10:36:53.526Z,67.34
2022-08-18T10:39:45.493Z,66.92
2022-08-18T10:42:30.868Z,65.72
2022-08-18T10:45:16.054Z,65.62
2022-08-18T10:48:11.771Z,66.56
2022-08-18T10:50:54.755Z,66.34
2022-08-18T10:53:40.720Z,66.23
2022-08-18T10:56:31.274Z,65.78
2022-08-18T10:59:18.146Z,65.77
2022-08-18T11:02:15.759Z,64.37
2022-08-18T11:04:59.252Z,62.93
2022-08-18T11:07:33.911Z,63.35
2022-08-18T11:10:57.661Z,62.85
2022-08-18T11:13:24.434Z,64.13
2022-08-18T11:19:10.771Z,63.01
2022-08-18T11:21:51.474Z,62.22
2022-08-18T11:24:27.709Z,63.33
2022-08-18T11:27:04.299Z,63.03
2022-08-18T11:29:43.884Z,62.10
2022-08-18T11:32:23.433Z,61.25
2022-08-18T11:35:07.695Z,60.65
2022-08-18T11:37:49.468Z,61.62
2022-08-18T11:43:41.539Z,61.16
2022-08-18T11:46:30.033Z,61.08
2022-08-18T11:49:30.048Z,61.93
2022-08-18T11:52:26.089Z,61.54
2022-08-18T11:55:14.643Z,60.66
2022-08-18T11:57:59.203Z,60.10
2022-08-18T12:01:01.362Z,61.27
2022-08-18T12:03:43.371Z,61.23
2022-08-18T12:06:26.954Z,61.12
2022-08-18T12:09:04.882Z,59.34
2022-08-18T12:11:51.523Z,57.72
2022-08-18T12:14:31.171Z,57.22
2022-08-18T12:17:09.408Z,57.18
2022-08-18T12:19:44.375Z,56.18
2022-08-18T12:22:25.010Z,56.54
2022-08-18T12:24:59.135Z,56.53
2022-08-18T12:27:32.752Z,58.14
2022-08-18T12:30:08.149Z,57.27
2022-08-18T12:32:56.412Z,57.88
2022-08-18T12:35:41.901Z,56.49
2022-08-18T12:38:17.802Z,55.67
2022-08-18T12:40:51.290Z,55.34
2022-08-18T12:43:24.787Z,55.72
2022-08-18T12:46:05.351Z,55.42
2022-08-18T12:48:41.603Z,54.81
2022-08-18T12:51:15.328Z,54.45
2022-08-18T12:53:58.231Z,54.34
2022-08-18T12:56:44.240Z,53.40
2022-08-18T12:59:17.650Z,54.28
2022-08-18T13:01:50.888Z,54.43
2022-08-18T13:04:31.561Z,54.58
2022-08-18T13:07:07.923Z,54.54
2022-08-18T13:09:53.272Z,54.38
2022-08-18T13:12:27.538Z,54.53
2022-08-18T13:15:02.064Z,54.07
2022-08-18T13:17:37.219Z,52.87
2022-08-18T13:20:17.893Z,52.80
2022-08-18T13:22:50.995Z,52.42
2022-08-18T13:25:33.237Z,52.22
2022-08-18T13:28:13.783Z,51.76
2022-08-18T13:30:47.003Z,52.77
2022-08-18T13:33:56.144Z,52.87
2022-08-18T13:36:13.450Z,53.28
2022-08-18T13:38:46.636Z,52.82
2022-08-18T13:43:58.212Z,50.54
2022-08-18T13:46:32.293Z,50.42
2022-08-18T13:49:05.681Z,51.13
2022-08-18T13:51:38.830Z,51.60
2022-08-18T13:54:30.908Z,51.27
2022-08-18T13:57:07.380Z,50.54
2022-08-18T13:59:46.494Z,51.39
2022-08-18T14:02:20.070Z,51.15
2022-08-18T14:05:00.161Z,51.38
2022-08-18T14:07:35.259Z,52.75
2022-08-18T14:10:10.677Z,51.70
2022-08-18T14:12:47.990Z,52.19
2022-08-18T14:15:23.716Z,51.49
2022-08-18T14:17:56.814Z,51.17
2022-08-18T14:20:50.003Z,51.13
2022-08-18T14:23:51.481Z,51.19
2022-08-18T14:26:44.198Z,50.11
2022-08-18T14:29:46.063Z,50.95
2022-08-18T14:32:18.068Z,50.52
2022-08-18T14:35:00.515Z,50.58
2022-08-18T14:37:34.736Z,51.50
2022-08-18T14:40:12.445Z,51.09
2022-08-18T14:42:54.984Z,50.72
2022-08-18T14:45:35.211Z,49.26
2022-08-18T14:48:10.989Z,49.43
2022-08-18T14:50:49.214Z,50.66
2022-08-18T14:53:25.698Z,50.37
2022-08-18T14:55:59.672Z,49.90
2022-08-18T14:58:33.889Z,49.70
2022-08-18T15:01:13.175Z,49.95
2022-08-18T15:03:49.187Z,50.21
2022-08-18T15:06:22.988Z,49.60
2022-08-18T15:09:00.758Z,49.63
2022-08-18T15:11:34.384Z,50.45
2022-08-18T15:14:07.626Z,49.23
2022-08-18T15:16:42.988Z,49.28
2022-08-18T15:19:58.417Z,49.52
2022-08-18T15:22:27.828Z,49.50
2022-08-18T15:25:21.252Z,49.24
2022-08-18T15:27:58.794Z,50.10
2022-08-18T15:30:32.162Z,48.90
2022-08-18T15:33:07.717Z,50.17
2022-08-18T15:35:44.333Z,50.06
2022-08-18T15:38:20.678Z,50.96
2022-08-18T15:40:58.094Z,50.89
2022-08-18T15:43:33.830Z,50.40
2022-08-18T15:46:07.905Z,50.90
2022-08-18T15:48:43.119Z,51.39
2022-08-18T15:51:17.070Z,51.97
2022-08-18T15:53:51.046Z,52.24
2022-08-18T15:56:26.676Z,52.25
2022-08-18T15:59:04.358Z,52.58
2022-08-18T16:01:41.842Z,52.70
2022-08-18T16:04:17.148Z,52.43
2022-08-18T16:06:51.162Z,52.64
2022-08-18T16:09:25.682Z,52.72
2022-08-18T16:12:00.446Z,52.66
2022-08-18T16:14:33.836Z,52.84
2022-08-18T16:17:13.188Z,52.36
2022-08-18T16:19:52.642Z,52.31
2022-08-18T16:22:26.634Z,52.64
2022-08-18T16:25:05.329Z,52.71
2022-08-18T16:27:41.797Z,52.62
2022-08-18T16:30:19.030Z,52.96
2022-08-18T16:32:53.396Z,52.82
2022-08-18T16:35:28.045Z,52.76
2022-08-18T16:38:05.646Z,53.07
2022-08-18T16:40:40.500Z,53.61
2022-08-18T16:43:14.861Z,52.98
2022-08-18T16:45:49.235Z,54.01
2022-08-18T16:48:23.752Z,54.08
2022-08-18T16:50:58.682Z,55.06
2022-08-18T16:53:40.378Z,54.74
2022-08-18T16:56:16.467Z,55.28
2022-08-18T16:59:07.564Z,55.25
2022-08-18T17:02:09.738Z,54.98
2022-08-18T17:04:42.870Z,55.57
2022-08-18T17:07:17.366Z,55.37
2022-08-18T17:09:50.438Z,55.87
2022-08-18T17:12:23.945Z,55.59
2022-08-18T17:14:57.099Z,55.87
2022-08-18T17:17:31.747Z,56.69
2022-08-18T17:20:10.997Z,56.07
2022-08-18T17:22:47.559Z,56.50
2022-08-18T17:25:25.677Z,57.04
2022-08-18T17:28:05.291Z,57.12
2022-08-18T17:30:47.980Z,57.67
2022-08-18T17:33:25.938Z,57.83
2022-08-18T17:36:04.921Z,58.13
2022-08-18T17:38:49.354Z,58.42
2022-08-18T17:41:23.658Z,58.40
2022-08-18T17:43:58.285Z,58.82
2022-08-18T17:46:40.318Z,58.54
2022-08-18T17:49:19.262Z,59.47
2022-08-18T17:51:56.266Z,58.83
2022-08-18T17:54:37.710Z,58.76
2022-08-18T17:57:14.735Z,59.93
2022-08-18T17:59:56.310Z,59.83
2022-08-18T18:02:33.300Z,59.63
2022-08-18T18:05:11.082Z,59.86
2022-08-18T18:08:00.484Z,59.54
2022-08-18T18:11:02.286Z,59.38
2022-08-18T18:13:36.612Z,59.86
2022-08-18T18:16:25.665Z,60.41
2022-08-18T18:19:03.272Z,60.66
2022-08-18T18:21:58.881Z,60.29
2022-08-18T18:24:34.756Z,60.11
2022-08-18T18:27:30.097Z,61.04
2022-08-18T18:30:06.966Z,60.62
2022-08-18T18:32:58.808Z,60.74
2022-08-18T18:35:54.906Z,60.24
2022-08-18T18:38:31.392Z,60.94
2022-08-18T18:41:08.038Z,61.50
2022-08-18T18:43:46.973Z,61.25
2022-08-18T18:46:32.340Z,61.94
2022-08-18T18:49:20.264Z,61.60
2022-08-18T18:52:07.537Z,61.95
2022-08-18T18:54:52.370Z,61.75
2022-08-18T18:57:38.078Z,60.25
2022-08-18T19:00:21.202Z,60.72
2022-08-18T19:03:07.108Z,59.64
2022-08-18T19:05:50.759Z,59.90
2022-08-18T19:08:35.917Z,60.85
2022-08-18T19:11:17.678Z,60.47
2022-08-18T19:13:56.565Z,60.28
2022-08-18T19:16:38.872Z,60.35
2022-08-18T19:19:38.206Z,60.51
2022-08-18T19:22:18.999Z,60.24
2022-08-18T19:25:01.084Z,60.21
2022-08-18T19:27:41.418Z,60.45
2022-08-18T19:30:17.645Z,60.24
2022-08-18T19:32:56.210Z,59.68
2022-08-18T19:35:43.297Z,59.43
2022-08-18T19:38:23.504Z,59.84
2022-08-18T19:41:03.372Z,59.87
2022-08-18T19:43:49.178Z,60.87
2022-08-18T19:46:34.681Z,61.18
2022-08-18T19:49:31.327Z,61.00
2022-08-18T19:52:46.807Z,61.20
2022-08-18T19:55:34.354Z,61.68
2022-08-18T19:58:32.802Z,61.58
2022-08-18T20:01:21.266Z,62.08
2022-08-18T20:04:14.260Z,61.19
2022-08-18T20:07:12.171Z,60.86
2022-08-18T20:10:18.676Z,62.03
2022-08-18T20:13:24.186Z,63.60
2022-08-18T20:16:44.317Z,62.26
2022-08-18T20:19:44.523Z,62.71
2022-08-18T20:22:35.775Z,61.47
2022-08-18T20:25:43.242Z,61.39
2022-08-18T20:28:39.462Z,60.92
2022-08-18T20:31:17.481Z,60.77
2022-08-18T20:34:14.143Z,60.46
2022-08-18T20:36:49.047Z,60.42
2022-08-18T20:39:45.901Z,61.09
2022-08-18T20:42:57.568Z,60.42
2022-08-18T20:45:46.071Z,61.38
2022-08-18T20:48:42.239Z,62.19
2022-08-18T20:51:20.871Z,62.51
2022-08-18T20:54:13.324Z,63.45
2022-08-18T20:56:53.043Z,63.92
2022-08-18T20:59:33.228Z,63.79
2022-08-18T21:02:09.507Z,64.15
2022-08-18T21:04:51.987Z,64.84
2022-08-18T21:07:37.169Z,64.76
2022-08-18T21:10:23.050Z,63.25
2022-08-18T21:13:01.925Z,63.35
2022-08-18T21:15:38.683Z,64.17
2022-08-18T21:18:22.453Z,64.80
2022-08-18T21:20:59.300Z,64.53
2022-08-18T21:23:37.667Z,64.76
2022-08-18T21:26:15.121Z,65.85
2022-08-18T21:28:54.482Z,65.29
2022-08-18T21:31:44.243Z,65.46
2022-08-18T21:34:33.287Z,65.70
2022-08-18T21:37:10.496Z,66.20
2022-08-18T21:39:56.187Z,66.55
2022-08-18T21:42:41.620Z,67.15
2022-08-18T21:45:20.152Z,67.75
2022-08-18T21:47:57.516Z,67.97
2022-08-18T21:50:33.714Z,68.34
2022-08-18T21:53:21.495Z,69.91
2022-08-18T21:55:56.235Z,69.33
2022-08-18T21:58:39.875Z,69.34
2022-08-18T22:01:28.166Z,69.31
2022-08-18T22:04:04.233Z,69.63
2022-08-18T22:06:40.265Z,69.46
2022-08-18T22:09:37.728Z,69.69
2022-08-18T22:12:54.201Z,70.59
2022-08-18T22:15:41.687Z,70.82
2022-08-18T22:18:40.566Z,71.34
2022-08-18T22:21:33.359Z,71.01
2022-08-18T22:24:19.936Z,71.75
2022-08-18T22:27:12.274Z,70.80
2022-08-18T22:29:53.557Z,70.59
2022-08-18T22:32:26.692Z,70.20
2022-08-18T22:35:01.086Z,70.26
2022-08-18T22:37:47.523Z,70.59
2022-08-18T22:40:23.838Z,71.08
2022-08-18T22:42:58.641Z,72.08
2022-08-18T22:45:31.787Z,72.53
2022-08-18T22:48:05.424Z,72.41
2022-08-18T22:50:39.862Z,72.19
2022-08-18T22:53:13.447Z,72.53
2022-08-18T22:55:46.564Z,72.40
2022-08-18T22:58:22.590Z,72.80
2022-08-18T23:01:05.735Z,73.17
2022-08-18T23:03:41.959Z,73.25
2022-08-18T23:06:17.323Z,73.32
2022-08-18T23:08:54.582Z,73.04
2022-08-18T23:11:31.443Z,73.88
2022-08-18T23:14:04.515Z,73.92
2022-08-18T23:16:37.636Z,74.76
2022-08-18T23:19:10.694Z,75.54
2022-08-18T23:21:45.794Z,76.08
2022-08-18T23:24:21.214Z,76.48
2022-08-18T23:26:54.681Z,76.54
2022-08-18T23:29:28.011Z,76.83
2022-08-18T23:32:01.072Z,76.25
2022-08-18T23:34:35.588Z,76.39
2022-08-18T23:37:10.666Z,76.97
2022-08-18T23:39:45.566Z,77.95
2022-08-18T23:42:18.652Z,77.91
2022-08-18T23:45:03.507Z,77.92
2022-08-18T23:47:36.889Z,77.95
2022-08-18T23:50:11.766Z,78.45
2022-08-18T23:52:47.450Z,79.21
2022-08-18T23:55:20.787Z,79.47
2022-08-18T23:57:53.955Z,79.61
